Espera Feliz, Brazil
Current Conditions -  °F | °C
As of 3:00 PM on Tuesday 21 Oct 2014 (Local Time) from SBCP Reporting Station
Overcast Overcast  
Wind Chill: 75°   Ceiling: 9000
Heat Index: 75°   Visibility: 6mi
Dew Point: 66°   Wind: 14mph
Humidity: 73%   Direction: 270°W
Pressure: 30.06"   Gusts: NA
Location:  20.65°S, 41.91°W
Report Text: SBCP 211700Z 27012KT 9999 SCT020 OVC090 24/19 Q1018
Loading
Personal Weather Stations






























Interactive Weather Map
Tropical Storm Tracking
New forecast layout! Learn more

10-Day Weather Forecast

Advertisements
Track Severe Weather on mobile